CDT,Max TemperatureF,Mean TemperatureF,Min TemperatureF,Max Dew PointF,MeanDew PointF,Min DewpointF,Max Humidity, Mean Humidity, Min Humidity, Max Sea Level PressureIn, Mean Sea Level PressureIn, Min Sea Level PressureIn, Max VisibilityMiles, Mean VisibilityMiles, Min VisibilityMiles, Max Wind SpeedMPH, Mean Wind SpeedMPH, Max Gust SpeedMPH,PrecipitationIn, CloudCover, Events, WindDirDegrees
2013-9-1,86,79,72,73,71,70,93,77,61,29.95,29.86,29.80,10,8,2,12,3,20,0.08,3,Rain-Thunderstorm,249
2013-9-2,87,77,66,70,63,57,93,65,37,29.97,29.93,29.87,10,10,9,13,6,17,0.00,0,,347
2013-9-3,86,72,58,62,57,48,100,65,29,30.08,30.03,29.97,10,10,10,12,3,24,0.00,0,,19
2013-9-4,86,70,54,61,56,51,93,63,32,30.18,30.12,30.07,10,10,9,8,1,13,0.00,0,,95
2013-9-5,86,71,56,63,59,54,93,64,34,30.21,30.16,30.14,10,10,10,10,2,14,0.00,0,,67
2013-9-6,85,72,59,65,62,58,100,72,43,30.19,30.12,30.06,10,9,4,9,1,13,0.00,0,,139
2013-9-7,89,75,60,67,62,59,100,69,37,30.08,30.03,29.96,10,9,5,12,3,15,0.00,0,,219
2013-9-8,88,77,66,71,67,64,87,69,50,30.03,29.96,29.91,10,9,1,13,3,16,0.00,1,,226
2013-9-9,94,81,67,71,67,62,100,68,36,30.01,29.98,29.94,10,7,2,12,4,15,0.00,0,,231
2013-9-10,93,81,68,67,63,54,84,56,28,30.13,30.08,30.01,10,10,7,12,4,16,0.00,0,,244
2013-9-11,94,80,66,69,66,62,93,66,38,30.15,30.11,30.07,10,9,5,15,2,20,T,1,Thunderstorm,156
2013-9-12,93,81,69,69,67,63,93,66,38,30.08,30.04,29.98,10,9,6,17,5,24,0.00,2,,328
2013-9-13,79,67,54,62,51,47,86,61,36,30.11,30.06,30.01,10,10,10,13,7,17,0.00,0,,31
2013-9-14,75,61,46,51,47,42,93,63,33,30.15,30.09,30.04,10,10,10,10,4,15,0.00,0,,97
2013-9-15,83,67,50,62,52,46,86,60,34,30.10,30.06,30.04,10,10,10,12,2,17,0.00,0,,171
2013-9-16,75,69,63,66,62,58,100,87,73,30.23,30.18,30.09,10,7,1,13,5,16,0.05,7,Rain,53
2013-9-17,80,71,62,67,63,60,93,74,54,30.22,30.16,30.06,10,7,2,9,4,13,0.16,4,Rain,96
2013-9-18,84,77,69,68,66,65,90,73,55,30.07,30.03,29.98,10,9,6,10,5,16,0.00,2,,166
2013-9-19,88,79,69,72,68,66,90,72,53,30.03,29.99,29.92,10,7,1,22,6,32,0.58,3,Rain-Thunderstorm,195
2013-9-20,74,66,58,68,65,54,100,89,78,29.99,29.94,29.89,10,9,2,14,5,29,0.54,6,Rain-Thunderstorm,315
2013-9-21,74,62,50,52,48,45,89,64,38,29.98,29.95,29.91,10,10,10,15,5,21,0.00,0,,359
2013-9-22,74,60,46,53,48,44,93,64,35,30.02,29.96,29.92,10,10,10,10,2,16,0.00,0,,104
2013-9-23,76,61,46,53,51,45,96,70,43,29.99,29.94,29.90,10,10,10,13,4,17,0.00,0,,125
2013-9-24,80,66,52,60,56,52,93,68,42,29.93,29.86,29.80,10,10,9,12,3,14,0.00,2,,264
2013-9-25,79,67,55,61,58,54,97,76,54,29.88,29.84,29.80,10,10,10,12,3,15,0.00,2,,356
2013-9-26,81,68,55,67,60,54,100,76,51,30.02,29.97,29.88,10,7,0,10,3,15,0.00,3,Fog,130
2013-9-27,81,69,57,66,61,57,97,76,54,30.10,30.04,29.99,10,7,1,13,4,18,0.00,1,,131
2013-9-28,81,72,63,66,64,61,93,76,58,30.04,30.00,29.95,10,10,4,18,7,25,0.19,5,Rain,176
2013-9-29,73,67,60,66,61,57,100,84,68,30.07,30.01,29.96,10,9,2,13,4,16,0.05,7,Rain,23
2013-9-30,75,68,62,66,63,62,100,84,68,30.00,29.96,29.90,10,6,0,12,5,15,0.01,6,Fog,131